createdAt,value
2023-02-01T00:00:23.094Z,2.50
2023-02-01T00:00:52.625Z,2.50
2023-02-01T00:01:23.040Z,2.50
2023-02-01T00:01:53.926Z,2.50
2023-02-01T00:02:25.059Z,2.50
2023-02-01T00:02:56.264Z,2.50
2023-02-01T00:03:27.705Z,2.50
2023-02-01T00:03:58.363Z,2.50
2023-02-01T00:04:29.320Z,2.50
2023-02-01T00:05:00.117Z,2.50
2023-02-01T00:05:31.913Z,2.50
2023-02-01T00:06:02.025Z,2.50
2023-02-01T00:06:33.652Z,2.50
2023-02-01T00:07:04.501Z,2.50
2023-02-01T00:07:35.061Z,2.50
2023-02-01T00:08:06.624Z,2.50
2023-02-01T00:08:37.567Z,2.50
2023-02-01T00:09:07.983Z,2.50
2023-02-01T00:09:39.489Z,2.60
2023-02-01T00:10:10.303Z,2.60
2023-02-01T00:10:41.363Z,2.60
2023-02-01T00:11:12.724Z,2.60
2023-02-01T00:11:43.913Z,2.60
2023-02-01T00:12:14.520Z,2.60
2023-02-01T00:12:45.847Z,2.60
2023-02-01T00:13:16.914Z,2.60
2023-02-01T00:13:47.634Z,2.60
2023-02-01T00:14:18.150Z,2.60
2023-02-01T00:14:49.859Z,2.60
2023-02-01T00:15:21.949Z,2.50
2023-02-01T00:15:51.547Z,2.50
2023-02-01T00:16:22.896Z,2.50
2023-02-01T00:16:53.740Z,2.50
2023-02-01T00:17:24.063Z,2.50
2023-02-01T00:17:55.568Z,2.50
2023-02-01T00:18:26.621Z,2.50
2023-02-01T00:18:57.026Z,2.50
2023-02-01T00:19:28.595Z,2.60
2023-02-01T00:19:59.276Z,2.60
2023-02-01T00:20:31.254Z,2.60
2023-02-01T00:21:01.043Z,2.60
2023-02-01T00:21:32.128Z,2.60
2023-02-01T00:22:03.868Z,2.60
2023-02-01T00:22:34.396Z,2.50
2023-02-01T00:23:05.869Z,2.50
2023-02-01T00:23:36.445Z,2.60
2023-02-01T00:24:07.749Z,2.60
2023-02-01T00:24:38.067Z,2.60
2023-02-01T00:25:09.801Z,2.60
2023-02-01T00:25:40.743Z,2.60
2023-02-01T00:26:11.715Z,2.50
2023-02-01T00:26:42.176Z,2.50
2023-02-01T00:27:13.942Z,2.50
2023-02-01T00:27:44.006Z,2.50
2023-02-01T00:28:15.496Z,2.50
2023-02-01T00:28:46.717Z,2.50
2023-02-01T00:29:17.091Z,2.50
2023-02-01T00:29:48.541Z,2.50
2023-02-01T00:30:21.019Z,2.50
2023-02-01T00:30:50.625Z,2.50
2023-02-01T00:31:22.669Z,2.50
2023-02-01T00:31:52.662Z,2.50
2023-02-01T00:32:24.834Z,2.50
2023-02-01T00:32:54.735Z,2.50
2023-02-01T00:33:25.534Z,2.50
2023-02-01T00:33:56.109Z,2.50
2023-02-01T00:34:27.067Z,2.50
2023-02-01T00:34:58.073Z,2.50
2023-02-01T00:35:30.153Z,2.50
2023-02-01T00:36:00.636Z,2.50
2023-02-01T00:36:31.800Z,2.50
2023-02-01T00:37:02.957Z,2.50
2023-02-01T00:37:33.662Z,2.50
2023-02-01T00:38:04.722Z,2.50
2023-02-01T00:38:35.304Z,2.50
2023-02-01T00:39:06.711Z,2.50
2023-02-01T00:39:37.398Z,2.50
2023-02-01T00:40:08.425Z,2.50
2023-02-01T00:40:39.084Z,2.50
2023-02-01T00:41:10.967Z,2.50
2023-02-01T00:41:41.633Z,2.50
2023-02-01T00:42:12.372Z,2.50
2023-02-01T00:42:44.193Z,2.50
2023-02-01T00:43:14.525Z,2.50
2023-02-01T00:43:45.142Z,2.50
2023-02-01T00:44:16.905Z,2.40
2023-02-01T00:44:47.201Z,2.40
2023-02-01T00:45:20.226Z,2.40
2023-02-01T00:45:49.217Z,2.40
2023-02-01T00:46:20.168Z,2.40
2023-02-01T00:46:51.665Z,2.50
2023-02-01T00:47:22.625Z,2.50
2023-02-01T00:47:53.979Z,2.50
2023-02-01T00:48:24.124Z,2.50
2023-02-01T00:48:55.482Z,2.50
2023-02-01T00:49:26.386Z,2.50
2023-02-01T00:49:57.496Z,2.50
2023-02-01T00:50:28.817Z,2.50
2023-02-01T00:50:59.494Z,2.50
2023-02-01T00:51:30.159Z,2.40
2023-02-01T00:52:01.538Z,2.40
2023-02-01T00:52:32.748Z,2.40
2023-02-01T00:53:03.288Z,2.40
2023-02-01T00:53:34.188Z,2.40
2023-02-01T00:54:05.556Z,2.40
2023-02-01T00:54:36.334Z,2.40
2023-02-01T00:55:07.458Z,2.40
2023-02-01T00:55:38.372Z,2.40
2023-02-01T00:56:09.466Z,2.50
2023-02-01T00:56:40.764Z,2.50
2023-02-01T00:57:11.830Z,2.50
2023-02-01T00:57:43.285Z,2.50
2023-02-01T00:58:13.756Z,2.50
2023-02-01T00:58:46.005Z,2.50
2023-02-01T00:59:15.210Z,2.50
2023-02-01T00:59:46.136Z,2.50
2023-02-01T01:00:18.889Z,2.50
2023-02-01T01:00:49.064Z,2.40
2023-02-01T01:01:19.542Z,2.40
2023-02-01T01:01:50.739Z,2.40
2023-02-01T01:02:21.810Z,2.40
2023-02-01T01:02:53.767Z,2.40
2023-02-01T01:03:23.240Z,2.50
2023-02-01T01:03:54.971Z,2.50
2023-02-01T01:04:25.619Z,2.50
2023-02-01T01:04:56.207Z,2.50
2023-02-01T01:05:28.948Z,2.50
2023-02-01T01:05:58.308Z,2.50
2023-02-01T01:06:29.582Z,2.40
2023-02-01T01:07:00.685Z,2.40
2023-02-01T01:07:31.776Z,2.40
2023-02-01T01:08:02.189Z,2.40
2023-02-01T01:08:33.164Z,2.40
2023-02-01T01:09:04.181Z,2.40
2023-02-01T01:09:35.755Z,2.40
2023-02-01T01:10:07.308Z,2.50
2023-02-01T01:10:38.235Z,2.50
2023-02-01T01:11:08.653Z,2.50
2023-02-01T01:11:39.874Z,2.50
2023-02-01T01:12:10.165Z,2.50
2023-02-01T01:12:42.053Z,2.50
2023-02-01T01:13:13.311Z,2.40
2023-02-01T01:13:43.684Z,2.40
2023-02-01T01:14:15.081Z,2.40
2023-02-01T01:14:45.789Z,2.40
2023-02-01T01:15:17.127Z,2.40
2023-02-01T01:15:47.437Z,2.40
2023-02-01T01:16:18.368Z,2.40
2023-02-01T01:16:49.487Z,2.40
2023-02-01T01:17:20.218Z,2.40
2023-02-01T01:17:51.133Z,2.40
2023-02-01T01:18:22.438Z,2.40
2023-02-01T01:18:53.805Z,2.40
2023-02-01T01:19:24.930Z,2.40
2023-02-01T01:19:55.576Z,2.40
2023-02-01T01:20:27.090Z,2.40
2023-02-01T01:20:57.693Z,2.40
2023-02-01T01:21:28.723Z,2.40
2023-02-01T01:21:59.823Z,2.40
2023-02-01T01:22:30.850Z,2.40
2023-02-01T01:23:01.428Z,2.40
2023-02-01T01:23:32.638Z,2.40
2023-02-01T01:24:03.175Z,2.40
2023-02-01T01:24:34.502Z,2.40
2023-02-01T01:25:05.626Z,2.40
2023-02-01T01:25:37.240Z,2.40
2023-02-01T01:26:08.063Z,2.40
2023-02-01T01:26:38.279Z,2.40
2023-02-01T01:27:09.234Z,2.40
2023-02-01T01:27:40.210Z,2.40
2023-02-01T01:28:11.902Z,2.40
2023-02-01T01:28:42.169Z,2.40
2023-02-01T01:29:13.215Z,2.40
2023-02-01T01:29:44.850Z,2.40
2023-02-01T01:30:16.985Z,2.40
2023-02-01T01:30:47.555Z,2.40
2023-02-01T01:31:17.276Z,2.40
2023-02-01T01:31:48.281Z,2.40
2023-02-01T01:32:19.920Z,2.40
2023-02-01T01:32:50.951Z,2.40
2023-02-01T01:33:21.207Z,2.40
2023-02-01T01:33:52.258Z,2.50
2023-02-01T01:34:24.356Z,2.40
2023-02-01T01:34:54.554Z,2.40
2023-02-01T01:35:27.485Z,2.50
2023-02-01T01:35:56.245Z,2.50
2023-02-01T01:36:27.995Z,2.50
2023-02-01T01:36:58.845Z,2.50
2023-02-01T01:37:29.966Z,2.50
2023-02-01T01:38:00.791Z,2.50
2023-02-01T01:38:32.060Z,2.50
2023-02-01T01:39:02.265Z,2.50
2023-02-01T01:39:33.340Z,2.50
2023-02-01T01:40:04.798Z,2.50
2023-02-01T01:40:36.017Z,2.50
2023-02-01T01:41:06.588Z,2.50
2023-02-01T01:41:37.269Z,2.50
2023-02-01T01:42:08.821Z,2.50
2023-02-01T01:42:39.856Z,2.50
2023-02-01T01:43:10.959Z,2.50
2023-02-01T01:43:41.465Z,2.50
2023-02-01T01:44:12.872Z,2.50
2023-02-01T01:44:43.273Z,2.50
2023-02-01T01:45:15.990Z,2.50
2023-02-01T01:45:45.795Z,2.50
2023-02-01T01:46:16.977Z,2.50
2023-02-01T01:46:47.349Z,2.50
2023-02-01T01:47:18.545Z,2.50
2023-02-01T01:47:50.157Z,2.50
2023-02-01T01:48:20.851Z,2.50
2023-02-01T01:48:51.995Z,2.50
2023-02-01T01:49:22.649Z,2.50
2023-02-01T01:49:53.309Z,2.50
2023-02-01T01:50:25.469Z,2.50
2023-02-01T01:50:56.084Z,2.50
2023-02-01T01:51:26.695Z,2.50
2023-02-01T01:51:57.963Z,2.50
2023-02-01T01:52:28.709Z,2.50
2023-02-01T01:53:00.298Z,2.50
2023-02-01T01:53:30.974Z,2.50
2023-02-01T01:54:02.058Z,2.50
2023-02-01T01:54:32.821Z,2.50
2023-02-01T01:55:04.419Z,2.50
2023-02-01T01:55:35.010Z,2.60
2023-02-01T01:56:05.719Z,2.60
2023-02-01T01:56:37.097Z,2.60
2023-02-01T01:57:08.148Z,2.60
2023-02-01T01:57:38.943Z,2.60
2023-02-01T01:58:09.319Z,2.60
2023-02-01T01:58:41.220Z,2.50
2023-02-01T01:59:11.355Z,2.50
2023-02-01T01:59:43.067Z,2.50
2023-02-01T02:00:15.383Z,2.50
2023-02-01T02:00:44.449Z,2.50
2023-02-01T02:01:15.365Z,2.50
2023-02-01T02:01:46.457Z,2.50
2023-02-01T02:02:18.204Z,2.50
2023-02-01T02:02:48.329Z,2.50
2023-02-01T02:03:19.993Z,2.50
2023-02-01T02:03:50.359Z,2.50
2023-02-01T02:04:22.200Z,2.50
2023-02-01T02:04:52.370Z,2.50
2023-02-01T02:05:24.197Z,2.50
2023-02-01T02:05:55.826Z,2.50
2023-02-01T02:06:25.392Z,2.50
2023-02-01T02:06:58.135Z,2.50
2023-02-01T02:07:28.443Z,2.50
2023-02-01T02:07:59.190Z,2.50
2023-02-01T02:08:29.748Z,2.60
2023-02-01T02:09:01.148Z,2.60
2023-02-01T02:09:31.345Z,2.60
2023-02-01T02:10:02.586Z,2.60
2023-02-01T02:10:33.896Z,2.60
2023-02-01T02:11:04.808Z,2.60
2023-02-01T02:11:35.878Z,2.60
2023-02-01T02:12:06.676Z,2.60
2023-02-01T02:12:38.570Z,2.50
2023-02-01T02:13:08.375Z,2.50
2023-02-01T02:13:39.396Z,2.50
2023-02-01T02:14:10.774Z,2.50
2023-02-01T02:14:41.851Z,2.50
2023-02-01T02:15:14.316Z,2.50
2023-02-01T02:15:44.064Z,2.50
2023-02-01T02:16:14.573Z,2.50
2023-02-01T02:16:46.259Z,2.50
2023-02-01T02:17:16.420Z,2.50
2023-02-01T02:17:48.145Z,2.50
2023-02-01T02:18:18.541Z,2.50
2023-02-01T02:18:50.182Z,2.50
2023-02-01T02:19:21.294Z,2.50
2023-02-01T02:19:51.994Z,2.50
2023-02-01T02:20:23.845Z,2.50
2023-02-01T02:20:53.400Z,2.50
2023-02-01T02:21:24.802Z,2.40
2023-02-01T02:21:56.062Z,2.40
2023-02-01T02:22:27.250Z,2.40
2023-02-01T02:22:57.931Z,2.40
2023-02-01T02:23:28.945Z,2.40
2023-02-01T02:24:00.214Z,2.40
2023-02-01T02:24:30.389Z,2.40
2023-02-01T02:25:03.194Z,2.50
2023-02-01T02:25:32.942Z,2.50
2023-02-01T02:26:04.048Z,2.50
2023-02-01T02:26:34.681Z,2.50
2023-02-01T02:27:05.959Z,2.50
2023-02-01T02:27:37.091Z,2.50
2023-02-01T02:28:07.634Z,2.50
2023-02-01T02:28:38.445Z,2.50
2023-02-01T02:29:09.731Z,2.50
2023-02-01T02:29:40.653Z,2.50
2023-02-01T02:30:12.569Z,2.50
2023-02-01T02:30:42.559Z,2.50
2023-02-01T02:31:13.780Z,2.50
2023-02-01T02:31:44.823Z,2.50
2023-02-01T02:32:15.673Z,2.50
2023-02-01T02:32:46.493Z,2.50
2023-02-01T02:33:17.721Z,2.50
2023-02-01T02:33:48.792Z,2.50
2023-02-01T02:34:20.019Z,2.50
2023-02-01T02:34:51.103Z,2.50
2023-02-01T02:35:22.695Z,2.50
2023-02-01T02:35:52.765Z,2.50
2023-02-01T02:36:23.810Z,2.50
2023-02-01T02:36:54.887Z,2.50
2023-02-01T02:37:26.228Z,2.50
2023-02-01T02:37:56.957Z,2.50
2023-02-01T02:38:28.444Z,2.50
2023-02-01T02:38:58.811Z,2.50
2023-02-01T02:39:30.064Z,2.50
2023-02-01T02:40:01.066Z,2.50
2023-02-01T02:40:31.733Z,2.50
2023-02-01T02:41:02.459Z,2.50
2023-02-01T02:41:34.391Z,2.50
2023-02-01T02:42:04.445Z,2.50
2023-02-01T02:42:36.119Z,2.50
2023-02-01T02:43:06.499Z,2.50
2023-02-01T02:43:37.483Z,2.50
2023-02-01T02:44:08.759Z,2.50
2023-02-01T02:44:40.475Z,2.50
2023-02-01T02:45:12.607Z,2.50
2023-02-01T02:45:41.857Z,2.40
2023-02-01T02:46:13.361Z,2.40
2023-02-01T02:46:43.992Z,2.40
2023-02-01T02:47:15.160Z,2.40
2023-02-01T02:47:46.284Z,2.40
2023-02-01T02:48:16.491Z,2.50
2023-02-01T02:48:48.254Z,2.50
2023-02-01T02:49:19.287Z,2.50
2023-02-01T02:49:50.166Z,2.50
2023-02-01T02:50:21.677Z,2.50
2023-02-01T02:50:51.968Z,2.50
2023-02-01T02:51:23.150Z,2.50
2023-02-01T02:51:53.521Z,2.50
2023-02-01T02:52:24.523Z,2.50
2023-02-01T02:52:55.541Z,2.50
2023-02-01T02:53:26.530Z,2.50
2023-02-01T02:53:57.550Z,2.50
2023-02-01T02:54:29.059Z,2.50
2023-02-01T02:54:59.734Z,2.50
2023-02-01T02:55:31.074Z,2.50
2023-02-01T02:56:01.913Z,2.50
2023-02-01T02:56:33.091Z,2.50
2023-02-01T02:57:04.147Z,2.50
2023-02-01T02:57:35.291Z,2.50
2023-02-01T02:58:05.497Z,2.40
2023-02-01T02:58:36.431Z,2.40
2023-02-01T02:59:08.201Z,2.40
2023-02-01T02:59:39.041Z,2.40
2023-02-01T03:00:10.847Z,2.40
2023-02-01T03:00:40.557Z,2.40
2023-02-01T03:01:12.555Z,2.40
2023-02-01T03:01:42.511Z,2.40
2023-02-01T03:02:13.621Z,2.40
2023-02-01T03:02:45.433Z,2.40
2023-02-01T03:03:15.519Z,2.40
2023-02-01T03:03:47.337Z,2.40
2023-02-01T03:04:17.559Z,2.40
2023-02-01T03:04:49.226Z,2.40
2023-02-01T03:05:22.125Z,2.40
2023-02-01T03:05:51.103Z,2.40
2023-02-01T03:06:21.504Z,2.50
2023-02-01T03:06:52.464Z,2.50
2023-02-01T03:07:23.788Z,2.50
2023-02-01T03:07:55.207Z,2.50
2023-02-01T03:08:25.924Z,2.50
2023-02-01T03:08:58.072Z,2.50
2023-02-01T03:09:28.094Z,2.40
2023-02-01T03:10:01.024Z,2.40
2023-02-01T03:10:29.850Z,2.40
2023-02-01T03:11:01.554Z,2.40
2023-02-01T03:11:32.040Z,2.40
2023-02-01T03:12:03.104Z,2.40
2023-02-01T03:12:33.547Z,2.40
2023-02-01T03:13:04.580Z,2.40
2023-02-01T03:13:35.989Z,2.40
2023-02-01T03:14:06.605Z,2.40
2023-02-01T03:14:37.824Z,2.40
2023-02-01T03:15:10.510Z,2.40
2023-02-01T03:15:39.982Z,2.40
2023-02-01T03:16:11.102Z,2.40
2023-02-01T03:16:42.173Z,2.40
2023-02-01T03:17:13.562Z,2.40
2023-02-01T03:17:44.830Z,2.40
2023-02-01T03:18:14.990Z,2.40
2023-02-01T03:18:46.104Z,2.40
2023-02-01T03:19:17.259Z,2.40
2023-02-01T03:19:48.148Z,2.40
2023-02-01T03:20:19.181Z,2.40
2023-02-01T03:20:50.223Z,2.40
2023-02-01T03:21:20.791Z,2.40
2023-02-01T03:21:52.400Z,2.40
2023-02-01T03:22:22.556Z,2.40
2023-02-01T03:22:54.289Z,2.40
2023-02-01T03:23:25.227Z,2.40
2023-02-01T03:23:56.260Z,2.40
2023-02-01T03:24:26.609Z,2.40
2023-02-01T03:24:58.614Z,2.40
2023-02-01T03:25:29.750Z,2.40
2023-02-01T03:25:59.624Z,2.40
2023-02-01T03:26:31.246Z,2.40
2023-02-01T03:27:02.095Z,2.40
2023-02-01T03:27:32.953Z,2.40
2023-02-01T03:28:04.173Z,2.40
2023-02-01T03:28:35.325Z,2.40
2023-02-01T03:29:06.045Z,2.40
2023-02-01T03:29:37.143Z,2.40
2023-02-01T03:30:08.985Z,2.40
2023-02-01T03:30:38.713Z,2.40
2023-02-01T03:31:10.460Z,2.40
2023-02-01T03:31:41.552Z,2.40
2023-02-01T03:32:11.623Z,2.40
2023-02-01T03:32:43.169Z,2.40
2023-02-01T03:33:13.589Z,2.40
2023-02-01T03:33:44.608Z,2.40
2023-02-01T03:34:16.353Z,2.40
2023-02-01T03:34:47.314Z,2.40
2023-02-01T03:35:18.228Z,2.40
2023-02-01T03:35:48.658Z,2.40
2023-02-01T03:36:19.815Z,2.40
2023-02-01T03:36:50.849Z,2.40
2023-02-01T03:37:21.815Z,2.40
2023-02-01T03:37:52.888Z,2.40
2023-02-01T03:38:23.727Z,2.40
2023-02-01T03:38:54.986Z,2.40
2023-02-01T03:39:25.977Z,2.40
2023-02-01T03:39:57.183Z,2.40
2023-02-01T03:40:29.416Z,2.40
2023-02-01T03:40:58.994Z,2.40
2023-02-01T03:41:31.142Z,2.40
2023-02-01T03:42:00.580Z,2.40
2023-02-01T03:42:31.619Z,2.40
2023-02-01T03:43:02.661Z,2.40
2023-02-01T03:43:33.809Z,2.40
2023-02-01T03:44:04.835Z,2.40
2023-02-01T03:44:36.059Z,2.40
2023-02-01T03:45:07.674Z,2.40
2023-02-01T03:45:38.088Z,2.40
2023-02-01T03:46:09.084Z,2.40
2023-02-01T03:46:39.869Z,2.40
2023-02-01T03:47:10.983Z,2.40
2023-02-01T03:47:42.055Z,2.40
2023-02-01T03:48:12.659Z,2.40
2023-02-01T03:48:43.978Z,2.40
2023-02-01T03:49:14.642Z,2.40
2023-02-01T03:49:46.081Z,2.40
2023-02-01T03:50:17.958Z,2.40
2023-02-01T03:50:48.104Z,2.40
2023-02-01T03:51:18.948Z,2.40
2023-02-01T03:51:50.150Z,2.40
2023-02-01T03:52:20.944Z,2.40
2023-02-01T03:52:52.038Z,2.40
2023-02-01T03:53:23.078Z,2.40
2023-02-01T03:53:53.871Z,2.40
2023-02-01T03:54:25.056Z,2.40
2023-02-01T03:54:55.817Z,2.40
2023-02-01T03:55:27.830Z,2.40
2023-02-01T03:55:57.958Z,2.40
2023-02-01T03:56:28.923Z,2.40
2023-02-01T03:57:00.005Z,2.40
2023-02-01T03:57:30.956Z,2.40
2023-02-01T03:58:02.015Z,2.40
2023-02-01T03:58:32.931Z,2.40
2023-02-01T03:59:04.082Z,2.30
2023-02-01T03:59:34.686Z,2.30
2023-02-01T04:00:07.062Z,2.30
2023-02-01T04:00:37.006Z,2.30
2023-02-01T04:01:08.116Z,2.30
2023-02-01T04:01:39.325Z,2.30
2023-02-01T04:02:09.717Z,2.30
2023-02-01T04:02:40.858Z,2.30
2023-02-01T04:03:11.830Z,2.30
2023-02-01T04:03:43.215Z,2.30
2023-02-01T04:04:14.071Z,2.30
2023-02-01T04:04:44.697Z,2.30
2023-02-01T04:05:16.548Z,2.30
2023-02-01T04:05:46.925Z,2.30
2023-02-01T04:06:18.103Z,2.30
2023-02-01T04:06:49.022Z,2.30
2023-02-01T04:07:19.947Z,2.30
2023-02-01T04:07:51.068Z,2.30
2023-02-01T04:08:21.739Z,2.30
2023-02-01T04:08:52.917Z,2.30
2023-02-01T04:09:24.339Z,2.30
2023-02-01T04:09:55.125Z,2.30
2023-02-01T04:10:26.581Z,2.30
2023-02-01T04:10:57.034Z,2.30
2023-02-01T04:11:28.399Z,2.20
2023-02-01T04:12:00.440Z,2.20
2023-02-01T04:12:30.113Z,2.20
2023-02-01T04:13:01.455Z,2.20
2023-02-01T04:13:31.986Z,2.20
2023-02-01T04:14:03.271Z,2.20
2023-02-01T04:14:33.837Z,2.20
2023-02-01T04:15:05.821Z,2.20
2023-02-01T04:15:36.780Z,2.20
2023-02-01T04:16:07.122Z,2.20
2023-02-01T04:16:38.115Z,2.20
2023-02-01T04:17:09.290Z,2.20
2023-02-01T04:17:39.751Z,2.20
2023-02-01T04:18:11.527Z,2.20
2023-02-01T04:18:41.887Z,2.20
2023-02-01T04:19:13.321Z,2.20
2023-02-01T04:19:43.762Z,2.20
2023-02-01T04:20:15.323Z,2.20
2023-02-01T04:20:45.976Z,2.20
2023-02-01T04:21:17.061Z,2.20
2023-02-01T04:21:48.399Z,2.20
2023-02-01T04:22:19.149Z,2.20
2023-02-01T04:22:50.092Z,2.20
2023-02-01T04:23:20.809Z,2.20
2023-02-01T04:23:52.512Z,2.20
2023-02-01T04:24:22.816Z,2.20
2023-02-01T04:24:53.907Z,2.20
2023-02-01T04:25:25.479Z,2.20
2023-02-01T04:25:56.091Z,2.20
2023-02-01T04:26:27.060Z,2.20
2023-02-01T04:26:58.303Z,2.20
2023-02-01T04:27:28.823Z,2.20
2023-02-01T04:28:00.047Z,2.20
2023-02-01T04:28:30.986Z,2.20
2023-02-01T04:29:01.819Z,2.20
2023-02-01T04:29:32.819Z,2.20
2023-02-01T04:30:05.469Z,2.20
2023-02-01T04:30:35.187Z,2.20
2023-02-01T04:31:06.103Z,2.20
2023-02-01T04:31:37.735Z,2.20
2023-02-01T04:32:08.523Z,2.20
2023-02-01T04:32:39.284Z,2.20
2023-02-01T04:33:10.579Z,2.20
2023-02-01T04:33:41.655Z,2.20
2023-02-01T04:34:11.870Z,2.20
2023-02-01T04:34:43.597Z,2.30
2023-02-01T04:35:14.428Z,2.30
2023-02-01T04:35:45.099Z,2.30
2023-02-01T04:36:15.859Z,2.30
2023-02-01T04:36:47.409Z,2.30
2023-02-01T04:37:18.245Z,2.30
2023-02-01T04:37:48.973Z,2.30
2023-02-01T04:38:19.985Z,2.30
2023-02-01T04:38:51.213Z,2.30
2023-02-01T04:39:22.107Z,2.30
2023-02-01T04:39:53.227Z,2.30
2023-02-01T04:40:25.086Z,2.30
2023-02-01T04:40:54.865Z,2.30
2023-02-01T04:41:25.852Z,2.30
2023-02-01T04:41:57.009Z,2.30
2023-02-01T04:42:28.483Z,2.30
2023-02-01T04:42:59.096Z,2.30
2023-02-01T04:43:31.016Z,2.30
2023-02-01T04:44:01.201Z,2.30
2023-02-01T04:44:32.263Z,2.30
2023-02-01T04:45:04.134Z,2.40
2023-02-01T04:45:34.506Z,2.40
2023-02-01T04:46:05.095Z,2.40
2023-02-01T04:46:36.966Z,2.40
2023-02-01T04:47:07.359Z,2.30
2023-02-01T04:47:37.965Z,2.30
2023-02-01T04:48:08.871Z,2.30
2023-02-01T04:48:45.875Z,2.30
2023-02-01T04:49:10.803Z,2.30
2023-02-01T04:49:41.956Z,2.30
2023-02-01T04:50:13.389Z,2.30
2023-02-01T04:50:44.652Z,2.30
2023-02-01T04:51:15.429Z,2.30
2023-02-01T04:51:47.291Z,2.30
2023-02-01T04:52:17.654Z,2.30
2023-02-01T04:52:47.897Z,2.40
2023-02-01T04:53:19.557Z,2.40
2023-02-01T04:53:50.288Z,2.40
2023-02-01T04:54:21.284Z,2.50
2023-02-01T04:54:51.951Z,2.50
2023-02-01T04:55:24.193Z,2.50
2023-02-01T04:55:53.883Z,2.50
2023-02-01T04:56:25.575Z,2.50
2023-02-01T04:56:56.400Z,2.50
2023-02-01T04:57:27.157Z,2.50
2023-02-01T04:57:57.853Z,2.50
2023-02-01T04:58:28.922Z,2.50
2023-02-01T04:59:00.528Z,2.50
2023-02-01T04:59:31.461Z,2.50
2023-02-01T05:00:02.909Z,2.50
2023-02-01T05:00:33.328Z,2.50
2023-02-01T05:01:04.078Z,2.50
2023-02-01T05:01:34.947Z,2.60
2023-02-01T05:02:06.742Z,2.60
2023-02-01T05:02:36.928Z,2.60
2023-02-01T05:03:07.881Z,2.60
2023-02-01T05:03:39.898Z,2.60
2023-02-01T05:04:10.608Z,2.60
2023-02-01T05:04:41.609Z,2.60
2023-02-01T05:05:12.790Z,2.60
2023-02-01T05:05:43.870Z,2.60
2023-02-01T05:06:14.466Z,2.60
2023-02-01T05:06:44.920Z,2.60
2023-02-01T05:07:16.468Z,2.60
2023-02-01T05:07:47.391Z,2.60
2023-02-01T05:08:17.856Z,2.60
2023-02-01T05:08:49.784Z,2.60
2023-02-01T05:09:19.952Z,2.60
2023-02-01T05:09:51.654Z,2.60
2023-02-01T05:10:23.098Z,2.60
2023-02-01T05:10:53.305Z,2.60
2023-02-01T05:11:24.616Z,2.60
2023-02-01T05:11:55.710Z,2.60
2023-02-01T05:12:26.966Z,2.60
2023-02-01T05:12:57.662Z,2.60
2023-02-01T05:13:28.218Z,2.60
2023-02-01T05:14:00.160Z,2.50
2023-02-01T05:14:30.664Z,2.50
2023-02-01T05:15:03.674Z,2.50
2023-02-01T05:15:32.084Z,2.50
2023-02-01T05:16:05.202Z,2.50
2023-02-01T05:16:34.318Z,2.50
2023-02-01T05:17:05.295Z,2.50
2023-02-01T05:17:36.719Z,2.50
2023-02-01T05:18:07.855Z,2.50
2023-02-01T05:18:38.094Z,2.50
2023-02-01T05:19:09.179Z,2.50
2023-02-01T05:19:40.426Z,2.50
2023-02-01T05:20:11.730Z,2.50
2023-02-01T05:20:42.025Z,2.50
2023-02-01T05:21:13.075Z,2.50
2023-02-01T05:21:43.957Z,2.50
2023-02-01T05:22:15.175Z,2.50
2023-02-01T05:22:46.168Z,2.50
2023-02-01T05:23:17.125Z,2.50
2023-02-01T05:23:47.914Z,2.50
2023-02-01T05:24:19.224Z,2.50
2023-02-01T05:24:50.164Z,2.50
2023-02-01T05:25:21.911Z,2.50
2023-02-01T05:25:52.230Z,2.60
2023-02-01T05:26:23.028Z,2.60
2023-02-01T05:26:54.434Z,2.60
2023-02-01T05:27:25.229Z,2.60
2023-02-01T05:27:56.166Z,2.60
2023-02-01T05:28:26.954Z,2.60
2023-02-01T05:28:58.254Z,2.60
2023-02-01T05:29:29.472Z,2.60
2023-02-01T05:30:00.176Z,2.60
2023-02-01T05:30:32.401Z,2.60
2023-02-01T05:31:01.949Z,2.60
2023-02-01T05:31:33.345Z,2.50
2023-02-01T05:32:20.681Z,2.50
2023-02-01T05:32:35.360Z,2.50
2023-02-01T05:33:05.955Z,2.50
2023-02-01T05:33:37.195Z,2.50
2023-02-01T05:34:08.361Z,2.50
2023-02-01T05:34:39.464Z,2.50
2023-02-01T05:35:10.809Z,2.50
2023-02-01T05:35:41.736Z,2.50
2023-02-01T05:36:12.341Z,2.50
2023-02-01T05:36:43.471Z,2.50
2023-02-01T05:37:14.276Z,2.50
2023-02-01T05:37:45.071Z,2.50
2023-02-01T05:38:16.103Z,2.50
2023-02-01T05:38:47.048Z,2.50
2023-02-01T05:39:17.956Z,2.50
2023-02-01T05:39:49.703Z,2.50
2023-02-01T05:40:21.227Z,2.50
2023-02-01T05:40:51.370Z,2.50
2023-02-01T05:41:22.255Z,2.50
2023-02-01T05:41:53.370Z,2.50
2023-02-01T05:42:24.408Z,2.50
2023-02-01T05:42:55.242Z,2.60
2023-02-01T05:43:26.294Z,2.60
2023-02-01T05:43:57.019Z,2.60
2023-02-01T05:44:28.535Z,2.60
2023-02-01T05:44:59.777Z,2.60
2023-02-01T05:45:31.740Z,2.60
2023-02-01T05:46:01.058Z,2.60
2023-02-01T05:46:33.852Z,2.60
2023-02-01T05:47:03.234Z,2.60
2023-02-01T05:47:35.205Z,2.60
2023-02-01T05:48:05.054Z,2.60
2023-02-01T05:48:36.144Z,2.60
2023-02-01T05:49:07.114Z,2.60
2023-02-01T05:49:38.387Z,2.60
2023-02-01T05:50:09.998Z,2.60
2023-02-01T05:50:40.329Z,2.60
2023-02-01T05:51:11.074Z,2.60
2023-02-01T05:51:42.113Z,2.60
2023-02-01T05:52:13.365Z,2.60
2023-02-01T05:52:44.524Z,2.60
2023-02-01T05:53:15.050Z,2.60
2023-02-01T05:53:46.071Z,2.60
2023-02-01T05:54:17.378Z,2.60
2023-02-01T05:54:48.266Z,2.60
2023-02-01T05:55:22.059Z,2.60
2023-02-01T05:55:50.388Z,2.60
2023-02-01T05:56:21.079Z,2.60
2023-02-01T05:56:52.276Z,2.60
2023-02-01T05:57:23.304Z,2.60
2023-02-01T05:57:54.366Z,2.60
2023-02-01T05:58:25.396Z,2.60
2023-02-01T05:58:56.296Z,2.70
2023-02-01T05:59:27.723Z,2.70
2023-02-01T06:00:00.335Z,2.70
2023-02-01T06:00:30.529Z,2.70
2023-02-01T06:01:00.538Z,2.70
2023-02-01T06:01:31.510Z,2.70
2023-02-01T06:02:02.512Z,2.70
2023-02-01T06:02:33.188Z,2.80
2023-02-01T06:03:04.351Z,2.80
2023-02-01T06:03:35.534Z,2.80
2023-02-01T06:04:06.472Z,2.80
2023-02-01T06:04:37.815Z,2.80
2023-02-01T06:05:08.887Z,2.80
2023-02-01T06:05:39.309Z,2.80
2023-02-01T06:06:10.331Z,2.70
2023-02-01T06:06:41.388Z,2.70
2023-02-01T06:07:12.364Z,2.70
2023-02-01T06:07:43.436Z,2.70
2023-02-01T06:08:14.946Z,2.70
2023-02-01T06:08:45.465Z,2.80
2023-02-01T06:09:16.360Z,2.80
2023-02-01T06:09:47.762Z,2.80
2023-02-01T06:10:19.263Z,2.80
2023-02-01T06:10:49.587Z,2.80
2023-02-01T06:11:31.893Z,2.80
2023-02-01T06:11:51.134Z,2.80
2023-02-01T06:12:22.266Z,2.80
2023-02-01T06:12:53.280Z,2.80
2023-02-01T06:13:24.244Z,2.80
2023-02-01T06:13:55.276Z,2.80
2023-02-01T06:14:26.349Z,2.80
2023-02-01T06:14:57.604Z,2.80
2023-02-01T06:15:29.335Z,2.80
2023-02-01T06:15:59.548Z,2.80
2023-02-01T06:16:30.737Z,2.80
2023-02-01T06:17:01.550Z,2.80
2023-02-01T06:17:32.675Z,2.80
2023-02-01T06:18:03.972Z,2.70
2023-02-01T06:18:34.516Z,2.70
2023-02-01T06:19:06.815Z,2.70
2023-02-01T06:19:36.409Z,2.70
2023-02-01T06:20:07.641Z,2.70
2023-02-01T06:20:38.450Z,2.70
2023-02-01T06:21:09.412Z,2.70
2023-02-01T06:21:40.525Z,2.70
2023-02-01T06:22:11.769Z,2.70
2023-02-01T06:22:42.470Z,2.70
2023-02-01T06:23:13.221Z,2.70
2023-02-01T06:23:44.450Z,2.70
2023-02-01T06:24:15.445Z,2.80
2023-02-01T06:24:46.401Z,2.80
2023-02-01T06:25:18.022Z,2.80
2023-02-01T06:25:48.528Z,2.80
2023-02-01T06:26:19.675Z,2.70
2023-02-01T06:26:50.627Z,2.70
2023-02-01T06:27:21.764Z,2.70
2023-02-01T06:27:52.532Z,2.70
2023-02-01T06:28:23.215Z,2.70
2023-02-01T06:28:54.245Z,2.80
2023-02-01T06:29:25.555Z,2.80
2023-02-01T06:29:56.726Z,2.80
2023-02-01T06:30:28.599Z,2.80
2023-02-01T06:30:58.558Z,2.80
2023-02-01T06:31:29.518Z,2.80
2023-02-01T06:32:00.571Z,2.90
2023-02-01T06:32:31.449Z,2.90
2023-02-01T06:33:02.202Z,2.90
2023-02-01T06:33:33.548Z,2.90
2023-02-01T06:34:04.457Z,2.90
2023-02-01T06:34:35.458Z,2.90
2023-02-01T06:35:07.151Z,2.90
2023-02-01T06:35:37.535Z,2.90
2023-02-01T06:36:08.234Z,2.90
2023-02-01T06:36:39.428Z,2.90
2023-02-01T06:37:10.374Z,2.90
2023-02-01T06:37:41.491Z,2.90
2023-02-01T06:38:12.475Z,2.90
2023-02-01T06:38:43.954Z,2.90
2023-02-01T06:39:14.776Z,2.90
2023-02-01T06:39:45.558Z,2.90
2023-02-01T06:40:17.229Z,2.90
2023-02-01T06:40:47.493Z,2.90
2023-02-01T06:41:18.506Z,2.90
2023-02-01T06:41:49.596Z,2.90
2023-02-01T06:42:20.604Z,2.90
2023-02-01T06:42:51.214Z,2.90
2023-02-01T06:43:22.451Z,2.90
2023-02-01T06:43:53.502Z,2.90
2023-02-01T06:44:24.585Z,2.90
2023-02-01T06:44:55.356Z,2.90
2023-02-01T06:45:27.822Z,2.90
2023-02-01T06:45:57.332Z,2.90
2023-02-01T06:46:28.598Z,2.90
2023-02-01T06:46:59.705Z,2.90
2023-02-01T06:47:30.250Z,2.90
2023-02-01T06:48:01.948Z,2.90
2023-02-01T06:48:32.261Z,2.90
2023-02-01T06:49:03.213Z,2.90
2023-02-01T06:49:36.046Z,2.90
2023-02-01T06:50:05.855Z,2.90
2023-02-01T06:50:38.186Z,2.90
2023-02-01T06:51:07.633Z,2.90
2023-02-01T06:51:38.287Z,2.90
2023-02-01T06:52:09.504Z,2.90
2023-02-01T06:52:40.306Z,2.90